Time;durP1;ratioP1;P1;durP2;ratioP2;P2;SDS_P1;SDS_P2;PMS_P1;PMS_P2;Temp;Humidity;BMP_temperature;BMP_pressure;BME280_temperature;BME280_humidity;BME280_pressure;Samples;Min_cycle;Max_cycle;Signal;HPM_P1;HPM_P2
2021/07/08 00:01:12;;;;;;;58.17;2.60;;;17.60;28.70;;;;;;5034813;28;20491;-70
2021/07/08 00:03:39;;;;;;;58.50;2.70;;;17.60;28.50;;;;;;5034778;28;20559;-70
2021/07/08 00:06:06;;;;;;;58.90;3.00;;;17.60;27.50;;;;;;5034997;28;20447;-70
2021/07/08 00:08:33;;;;;;;59.00;2.87;;;17.50;29.00;;;;;;5034899;28;20535;-70
2021/07/08 00:11:01;;;;;;;58.07;2.70;;;17.50;34.90;;;;;;5034706;28;20535;-70
2021/07/08 00:13:29;;;;;;;59.43;3.07;;;17.50;36.10;;;;;;5034653;28;20530;-70
2021/07/08 00:15:57;;;;;;;58.03;2.60;;;17.50;35.40;;;;;;5034608;28;20526;-70
2021/07/08 00:18:26;;;;;;;57.83;2.50;;;17.50;36.30;;;;;;5034384;28;20546;-70
2021/07/08 00:20:53;;;;;;;58.20;2.70;;;17.50;35.20;;;;;;5034461;28;20486;-70
2021/07/08 00:23:21;;;;;;;57.97;2.53;;;17.50;36.30;;;;;;5034089;28;20479;-70
2021/07/08 00:25:50;;;;;;;57.83;2.60;;;17.50;35.70;;;;;;5033307;28;20456;-70
2021/07/08 00:28:18;;;;;;;58.17;2.70;;;17.50;36.60;;;;;;5052508;28;20450;-70
2021/07/08 00:30:47;;;;;;;58.07;2.50;;;17.50;39.20;;;;;;5054361;28;20876;-70
2021/07/08 00:33:14;;;;;;;57.47;2.50;;;17.40;39.70;;;;;;5053791;28;20510;-70
2021/07/08 00:35:41;;;;;;;58.60;2.70;;;17.50;44.90;;;;;;5054201;28;20571;-70
2021/07/08 00:38:09;;;;;;;57.80;2.57;;;17.40;46.00;;;;;;5053981;28;20485;-70
2021/07/08 00:40:36;;;;;;;58.47;2.70;;;17.40;46.20;;;;;;5054355;28;20451;-70
2021/07/08 00:43:03;;;;;;;58.27;2.40;;;17.40;48.10;;;;;;5053884;28;20887;-70
2021/07/08 00:45:32;;;;;;;58.27;2.60;;;17.40;56.60;;;;;;5053963;28;20564;-70
2021/07/08 00:47:59;;;;;;;58.30;2.80;;;17.40;58.00;;;;;;5053762;28;20460;-70
2021/07/08 00:50:30;;;;;;;58.33;2.60;;;17.40;59.70;;;;;;5052612;28;20469;-70
2021/07/08 00:52:57;;;;;;;57.93;2.70;;;17.40;61.80;;;;;;5053425;28;20969;-70
2021/07/08 00:55:24;;;;;;;58.33;2.80;;;17.40;62.80;;;;;;5049539;28;20599;-70
2021/07/08 00:57:54;;;;;;;57.97;2.80;;;17.40;63.50;;;;;;5039522;28;20483;-70
2021/07/08 01:00:23;;;;;;;58.03;2.67;;;17.40;65.00;;;;;;5053698;28;20455;-70
2021/07/08 01:02:51;;;;;;;58.20;2.57;;;17.30;67.40;;;;;;5053301;28;20542;-70
2021/07/08 01:05:19;;;;;;;59.17;3.00;;;17.30;69.30;;;;;;5053368;28;20451;-70
2021/07/08 01:07:46;;;;;;;58.23;2.50;;;17.30;70.80;;;;;;5053648;28;20447;-71
2021/07/08 01:10:14;;;;;;;58.40;2.53;;;17.30;73.30;;;;;;5053334;28;20541;-70
2021/07/08 01:12:41;;;;;;;58.97;2.57;;;17.30;74.50;;;;;;5053278;28;20494;-70
2021/07/08 01:15:10;;;;;;;58.40;2.77;;;17.30;76.50;;;;;;5053260;28;20499;-70
2021/07/08 01:17:37;;;;;;;58.13;2.60;;;17.30;76.60;;;;;;5053188;28;20478;-70
2021/07/08 01:20:07;;;;;;;58.80;2.60;;;17.30;79.10;;;;;;5053158;28;20444;-70
2021/07/08 01:22:36;;;;;;;58.17;2.70;;;17.30;79.70;;;;;;5053062;28;20513;-70
2021/07/08 01:25:04;;;;;;;58.07;2.60;;;17.30;80.60;;;;;;5053316;28;20471;-71
2021/07/08 01:27:32;;;;;;;58.60;2.90;;;17.30;82.00;;;;;;5039625;28;20494;-71
2021/07/08 01:29:59;;;;;;;58.17;2.70;;;17.30;83.70;;;;;;5033021;28;20487;-70
2021/07/08 01:32:25;;;;;;;58.30;2.80;;;17.30;83.50;;;;;;5032703;28;20506;-70
2021/07/08 01:34:52;;;;;;;58.23;2.50;;;17.30;84.00;;;;;;5033270;28;20574;-71
2021/07/08 01:37:19;;;;;;;58.33;2.57;;;17.30;84.00;;;;;;5033177;28;20575;-70
2021/07/08 01:39:48;;;;;;;58.07;2.57;;;17.30;84.20;;;;;;5033189;28;20901;-70
2021/07/08 01:42:15;;;;;;;57.87;2.80;;;17.30;84.40;;;;;;5032271;28;20481;-70
2021/07/08 01:44:42;;;;;;;58.30;2.90;;;17.30;84.40;;;;;;5032718;28;20548;-71
2021/07/08 01:47:09;;;;;;;58.30;2.57;;;17.30;85.10;;;;;;5032880;28;20530;-71
2021/07/08 01:49:36;;;;;;;58.27;2.70;;;17.30;84.70;;;;;;5032902;28;20546;-70
2021/07/08 01:52:04;;;;;;;58.27;2.97;;;17.20;83.90;;;;;;5032966;28;20604;-71
2021/07/08 01:54:31;;;;;;;58.13;2.60;;;17.20;84.80;;;;;;5032900;28;20468;-71
2021/07/08 01:56:59;;;;;;;58.23;2.70;;;17.10;85.30;;;;;;5032765;28;20866;-71
2021/07/08 01:59:26;;;;;;;57.80;2.60;;;17.10;86.90;;;;;;5051572;28;20542;-71
2021/07/08 02:01:53;;;;;;;58.37;2.80;;;17.10;88.20;;;;;;5052207;28;20542;-71
2021/07/08 02:04:19;;;;;;;58.47;2.73;;;17.10;90.20;;;;;;5052662;28;20475;-71
2021/07/08 02:06:46;;;;;;;58.07;2.70;;;17.10;91.10;;;;;;5052895;28;20447;-71
2021/07/08 02:09:13;;;;;;;58.07;2.50;;;17.10;91.50;;;;;;5052624;28;20447;-71
2021/07/08 02:11:40;;;;;;;58.47;2.67;;;17.10;91.90;;;;;;5052587;28;20457;-71
2021/07/08 02:14:09;;;;;;;58.27;2.50;;;17.10;91.60;;;;;;5052604;28;20824;-72
2021/07/08 02:16:36;;;;;;;58.03;2.60;;;17.10;91.80;;;;;;5053112;28;20860;-71
2021/07/08 02:19:04;;;;;;;58.20;2.80;;;17.10;91.40;;;;;;5052897;28;20462;-71
2021/07/08 02:21:31;;;;;;;58.17;2.70;;;17.10;91.20;;;;;;5052936;28;20455;-71
2021/07/08 02:23:58;;;;;;;58.17;2.80;;;17.10;92.70;;;;;;5052857;28;20570;-71
2021/07/08 02:26:25;;;;;;;57.67;2.60;;;17.10;92.20;;;;;;5052209;28;20488;-71
2021/07/08 02:28:53;;;;;;;58.03;2.67;;;17.10;92.30;;;;;;5051285;28;20546;-71
2021/07/08 02:31:21;;;;;;;57.83;2.60;;;17.10;92.80;;;;;;5052099;28;20482;-71
2021/07/08 02:33:48;;;;;;;58.20;2.60;;;17.10;92.80;;;;;;5051822;28;20994;-71
2021/07/08 02:36:15;;;;;;;58.23;2.80;;;17.00;92.80;;;;;;5052032;28;20529;-71
2021/07/08 02:38:42;;;;;;;58.07;2.80;;;17.00;93.10;;;;;;5051807;28;20538;-71
2021/07/08 02:41:09;;;;;;;58.13;2.57;;;17.00;92.80;;;;;;5051740;28;20458;-70
2021/07/08 02:43:36;;;;;;;58.07;2.80;;;17.00;92.90;;;;;;5051863;28;20891;-71
2021/07/08 02:46:03;;;;;;;58.07;2.60;;;17.00;92.70;;;;;;5051954;28;20448;-71
2021/07/08 02:48:31;;;;;;;58.07;2.60;;;17.00;92.90;;;;;;5051894;28;20532;-71
2021/07/08 02:50:58;;;;;;;57.93;2.60;;;17.00;93.60;;;;;;5051787;28;20446;-70
2021/07/08 02:53:25;;;;;;;58.17;2.60;;;16.90;93.80;;;;;;5051359;28;20561;-71
2021/07/08 02:55:52;;;;;;;58.27;2.70;;;16.90;93.70;;;;;;5051574;28;21089;-71
2021/07/08 02:58:20;;;;;;;58.37;2.57;;;16.90;93.90;;;;;;5051593;28;20541;-71
2021/07/08 03:00:48;;;;;;;58.40;2.53;;;17.00;94.10;;;;;;5040031;28;20495;-71
2021/07/08 03:03:15;;;;;;;58.00;2.50;;;16.90;94.60;;;;;;5044683;28;20550;-71
2021/07/08 03:05:44;;;;;;;58.40;2.70;;;16.90;95.10;;;;;;5051640;28;20506;-71
2021/07/08 03:08:11;;;;;;;58.30;2.70;;;16.90;95.40;;;;;;5051471;28;20490;-70
2021/07/08 03:10:38;;;;;;;58.27;2.70;;;16.90;95.60;;;;;;5051728;28;20500;-71
2021/07/08 03:13:06;;;;;;;58.50;2.70;;;16.90;95.40;;;;;;5052773;28;20536;-71
2021/07/08 03:15:33;;;;;;;58.20;2.70;;;16.90;95.50;;;;;;5055662;28;20450;-70
2021/07/08 03:18:00;;;;;;;58.17;2.90;;;16.90;95.60;;;;;;5055965;28;20537;-71
2021/07/08 03:20:30;;;;;;;57.87;2.60;;;16.90;95.80;;;;;;5055703;28;20454;-71
2021/07/08 03:22:59;;;;;;;58.30;2.70;;;16.90;96.10;;;;;;5055240;28;20469;-71
2021/07/08 03:25:26;;;;;;;58.07;2.60;;;16.90;96.20;;;;;;5055750;28;20537;-71
2021/07/08 03:27:55;;;;;;;58.07;2.60;;;16.80;96.30;;;;;;5055664;28;20453;-71
2021/07/08 03:30:24;;;;;;;58.40;2.60;;;16.90;96.50;;;;;;5054795;28;20778;-70
2021/07/08 03:32:52;;;;;;;58.03;2.43;;;16.80;96.20;;;;;;5054013;28;20455;-70
2021/07/08 03:35:19;;;;;;;58.10;2.53;;;16.80;96.60;;;;;;5055488;28;20482;-71
2021/07/08 03:37:46;;;;;;;58.20;2.70;;;16.80;96.80;;;;;;5055371;28;20568;-71
2021/07/08 03:40:16;;;;;;;57.97;2.50;;;16.80;97.20;;;;;;5055353;28;20804;-71
2021/07/08 03:42:44;;;;;;;57.87;2.70;;;16.80;97.30;;;;;;5054955;28;20454;-71
2021/07/08 03:45:13;;;;;;;58.20;2.50;;;16.80;97.80;;;;;;5055018;28;21036;-70
2021/07/08 03:47:40;;;;;;;58.63;3.10;;;16.80;97.40;;;;;;5054984;28;20851;-71
2021/07/08 03:50:09;;;;;;;58.37;2.53;;;16.80;97.80;;;;;;5055247;28;20800;-71
2021/07/08 03:52:38;;;;;;;58.33;2.63;;;16.80;98.40;;;;;;5054665;28;20544;-70
2021/07/08 03:55:07;;;;;;;57.87;2.70;;;16.80;98.40;;;;;;5055064;28;20883;-70
2021/07/08 03:57:35;;;;;;;58.10;2.50;;;16.80;99.00;;;;;;5054855;28;20487;-70
2021/07/08 04:00:02;;;;;;;58.00;2.93;;;16.70;99.20;;;;;;5054841;28;20456;-70
2021/07/08 04:02:29;;;;;;;58.07;2.80;;;16.70;99.40;;;;;;5053763;28;20463;-70
2021/07/08 04:04:56;;;;;;;58.30;2.77;;;16.70;99.90;;;;;;5053884;28;20554;-71
2021/07/08 04:07:23;;;;;;;58.00;2.50;;;16.70;99.90;;;;;;5054501;28;20827;-70
2021/07/08 04:09:49;;;;;;;57.87;2.60;;;16.70;99.90;;;;;;5054789;28;20495;-70
2021/07/08 04:12:16;;;;;;;58.03;2.73;;;16.70;99.90;;;;;;5054959;28;20484;-70
2021/07/08 04:14:45;;;;;;;57.97;2.60;;;16.70;99.90;;;;;;5054634;28;20573;-70
2021/07/08 04:17:11;;;;;;;58.07;2.60;;;16.70;99.90;;;;;;5054856;28;20577;-71
2021/07/08 04:19:38;;;;;;;58.50;3.00;;;16.70;99.90;;;;;;5054797;28;20483;-71
2021/07/08 04:22:06;;;;;;;58.17;2.70;;;16.70;99.90;;;;;;5054379;28;20537;-70
2021/07/08 04:24:32;;;;;;;57.77;2.50;;;16.80;99.90;;;;;;5054061;28;20514;-71
2021/07/08 04:26:59;;;;;;;57.60;2.60;;;16.80;99.90;;;;;;5054255;28;21018;-70
2021/07/08 04:29:26;;;;;;;60.97;4.30;;;16.80;99.90;;;;;;5054208;28;20454;-70
2021/07/08 04:31:54;;;;;;;57.97;2.50;;;16.80;99.90;;;;;;5054227;28;20490;-70
2021/07/08 04:34:21;;;;;;;58.03;2.50;;;16.80;99.90;;;;;;5054403;28;20532;-70
2021/07/08 04:36:48;;;;;;;57.90;2.50;;;16.80;99.90;;;;;;5053874;28;20752;-70
2021/07/08 04:39:15;;;;;;;58.07;2.60;;;16.80;99.90;;;;;;5054337;28;20538;-70
2021/07/08 04:41:42;;;;;;;58.13;2.70;;;16.80;99.90;;;;;;5053916;28;20533;-71
2021/07/08 04:44:09;;;;;;;57.87;2.80;;;16.80;99.90;;;;;;5054240;28;20561;-70
2021/07/08 04:46:35;;;;;;;58.13;2.70;;;16.80;99.90;;;;;;5054460;28;20483;-70
2021/07/08 04:49:04;;;;;;;58.10;2.87;;;16.90;99.90;;;;;;5054227;28;20454;-70
2021/07/08 04:51:31;;;;;;;58.00;2.80;;;16.90;99.90;;;;;;5053997;28;20535;-70
2021/07/08 04:53:57;;;;;;;58.27;2.70;;;16.90;99.90;;;;;;5054169;28;20553;-70
2021/07/08 04:56:24;;;;;;;58.70;3.40;;;16.90;99.90;;;;;;5053667;28;20486;-70
2021/07/08 04:58:51;;;;;;;57.83;2.60;;;16.90;99.90;;;;;;5053979;28;20550;-70
2021/07/08 05:01:18;;;;;;;58.17;2.83;;;16.90;99.90;;;;;;5053705;28;20451;-70
2021/07/08 05:03:45;;;;;;;58.07;2.90;;;17.00;99.90;;;;;;5054004;28;20509;-70
2021/07/08 05:06:13;;;;;;;58.13;2.80;;;17.00;99.90;;;;;;5054008;28;20977;-70
2021/07/08 05:08:41;;;;;;;57.63;2.77;;;17.00;99.90;;;;;;5053676;28;20493;-70
2021/07/08 05:11:08;;;;;;;58.03;2.67;;;17.00;99.90;;;;;;5053322;28;20458;-70
2021/07/08 05:13:35;;;;;;;58.10;2.70;;;17.00;99.90;;;;;;5053612;28;20470;-70
2021/07/08 05:16:02;;;;;;;58.60;2.80;;;17.00;99.90;;;;;;5054272;28;20447;-70
2021/07/08 05:18:28;;;;;;;58.07;2.70;;;17.00;99.90;;;;;;5053529;28;20578;-70
2021/07/08 05:20:56;;;;;;;58.30;3.20;;;17.10;99.90;;;;;;5053503;28;20483;-70
2021/07/08 05:23:26;;;;;;;57.87;2.60;;;17.10;99.90;;;;;;5053062;28;20991;-70
2021/07/08 05:25:53;;;;;;;58.10;2.60;;;17.10;99.90;;;;;;5053587;28;20435;-70
2021/07/08 05:28:21;;;;;;;57.87;2.60;;;17.20;99.90;;;;;;5053425;28;20446;-70
2021/07/08 05:30:48;;;;;;;57.97;2.60;;;17.20;99.90;;;;;;5053310;28;20462;-70
2021/07/08 05:33:15;;;;;;;57.77;2.47;;;17.20;99.90;;;;;;5053069;28;20933;-70
2021/07/08 05:35:41;;;;;;;57.83;2.53;;;17.30;99.90;;;;;;5052521;28;20487;-70
2021/07/08 05:38:08;;;;;;;57.87;2.53;;;17.30;99.90;;;;;;5053131;28;20489;-70
2021/07/08 05:40:37;;;;;;;58.37;2.90;;;17.30;99.90;;;;;;5053670;28;20497;-70
2021/07/08 05:43:05;;;;;;;57.93;2.60;;;17.40;99.90;;;;;;5052955;28;20539;-70
2021/07/08 05:45:32;;;;;;;58.00;2.70;;;17.40;99.90;;;;;;5053387;28;20448;-70
2021/07/08 05:47:59;;;;;;;58.20;2.60;;;17.40;99.90;;;;;;5053074;28;20483;-70
2021/07/08 05:50:26;;;;;;;57.87;3.00;;;17.40;99.90;;;;;;5052965;28;20952;-70
2021/07/08 05:52:53;;;;;;;58.20;2.90;;;17.50;99.00;;;;;;5052533;28;20494;-70
2021/07/08 05:55:20;;;;;;;58.30;3.20;;;17.40;98.30;;;;;;5052800;28;20533;-70
2021/07/08 05:57:48;;;;;;;58.23;2.60;;;17.50;97.90;;;;;;5052879;28;20575;-70
2021/07/08 06:00:17;;;;;;;58.07;2.70;;;17.50;97.70;;;;;;5052821;28;20543;-70
2021/07/08 06:02:44;;;;;;;58.20;2.70;;;17.50;97.40;;;;;;5052360;28;20487;-70
2021/07/08 06:05:12;;;;;;;58.07;2.70;;;17.50;97.40;;;;;;5052496;28;20919;-70
2021/07/08 06:07:38;;;;;;;58.10;2.70;;;17.60;97.50;;;;;;5052612;28;20538;-70
2021/07/08 06:10:07;;;;;;;57.77;2.50;;;17.60;97.00;;;;;;5052843;28;20478;-70
2021/07/08 06:12:35;;;;;;;58.00;2.60;;;17.60;96.40;;;;;;5052142;28;20462;-70
2021/07/08 06:15:04;;;;;;;58.13;2.60;;;17.70;95.40;;;;;;5052530;28;20558;-70
2021/07/08 06:17:31;;;;;;;57.67;2.70;;;17.70;94.90;;;;;;5052375;28;20482;-71
2021/07/08 06:19:58;;;;;;;58.10;2.60;;;17.70;93.50;;;;;;5052561;28;20559;-70
2021/07/08 06:22:25;;;;;;;57.93;2.60;;;17.70;92.60;;;;;;5052099;28;21014;-70
2021/07/08 06:24:51;;;;;;;58.13;2.70;;;17.70;91.90;;;;;;5052616;28;20471;-70
2021/07/08 06:27:18;;;;;;;58.07;2.83;;;17.80;91.90;;;;;;5052336;28;20487;-70
2021/07/08 06:29:45;;;;;;;58.67;3.50;;;17.80;91.90;;;;;;5052286;28;20543;-69
2021/07/08 06:32:16;;;;;;;58.27;2.87;;;17.90;91.50;;;;;;5051841;28;20557;-70
2021/07/08 06:34:43;;;;;;;58.00;2.60;;;18.00;90.20;;;;;;5052093;28;20529;-70
2021/07/08 06:37:10;;;;;;;57.87;2.47;;;18.00;89.00;;;;;;5052185;28;20924;-70
2021/07/08 06:39:37;;;;;;;58.17;3.23;;;18.10;88.80;;;;;;5052141;28;20878;-70
2021/07/08 06:42:04;;;;;;;57.83;2.80;;;18.20;88.60;;;;;;5051759;28;20944;-69
2021/07/08 06:44:31;;;;;;;57.77;2.70;;;18.30;88.50;;;;;;5052009;28;20474;-70
2021/07/08 06:46:58;;;;;;;57.57;2.47;;;18.40;87.70;;;;;;5051852;28;20454;-69
2021/07/08 06:49:27;;;;;;;58.00;2.47;;;18.50;85.90;;;;;;5052149;28;20451;-70
2021/07/08 06:51:54;;;;;;;58.03;2.77;;;18.60;84.10;;;;;;5051558;28;20455;-70
2021/07/08 06:54:22;;;;;;;58.23;2.70;;;18.60;82.10;;;;;;5052045;28;20551;-70
2021/07/08 06:56:48;;;;;;;57.87;2.47;;;18.70;80.20;;;;;;5051899;28;20472;-70
2021/07/08 06:59:15;;;;;;;58.00;2.60;;;18.70;79.00;;;;;;5051860;28;20447;-70
2021/07/08 07:01:42;;;;;;;57.87;2.70;;;18.80;78.60;;;;;;5051675;28;20817;-70
2021/07/08 07:04:09;;;;;;;58.10;2.80;;;18.80;77.20;;;;;;5051828;28;20468;-70
2021/07/08 07:06:37;;;;;;;58.50;3.57;;;18.80;73.40;;;;;;5051404;28;20452;-70
2021/07/08 07:09:04;;;;;;;58.07;2.60;;;18.80;71.70;;;;;;5050311;28;20510;-70
2021/07/08 07:11:31;;;;;;;58.20;2.60;;;18.70;70.00;;;;;;5051394;28;20447;-70
2021/07/08 07:13:58;;;;;;;58.17;2.70;;;18.70;71.20;;;;;;5051517;28;20896;-70
2021/07/08 07:16:25;;;;;;;58.60;2.73;;;18.70;72.40;;;;;;5052015;28;20486;-70
2021/07/08 07:18:52;;;;;;;58.10;2.57;;;18.60;70.90;;;;;;5051738;28;21111;-70
2021/07/08 07:21:19;;;;;;;58.17;2.63;;;18.60;70.30;;;;;;5051764;28;20543;-70
2021/07/08 07:23:47;;;;;;;57.97;2.50;;;18.60;68.40;;;;;;5051431;28;20480;-70
2021/07/08 07:26:16;;;;;;;58.03;2.50;;;18.60;67.30;;;;;;5051985;28;20545;-70
2021/07/08 07:28:43;;;;;;;58.47;3.00;;;18.60;69.60;;;;;;5051531;28;20502;-70
2021/07/08 07:31:10;;;;;;;57.80;3.00;;;18.60;70.00;;;;;;5051639;28;20543;-70
2021/07/08 07:33:37;;;;;;;58.37;2.90;;;18.60;71.80;;;;;;5051386;28;20563;-70
2021/07/08 07:36:04;;;;;;;57.73;2.37;;;18.80;72.30;;;;;;5051546;28;20454;-70
2021/07/08 07:38:31;;;;;;;58.00;2.57;;;18.90;72.10;;;;;;5051336;28;20486;-70
2021/07/08 07:40:59;;;;;;;58.60;2.70;;;19.00;71.30;;;;;;5051355;28;20488;-70
2021/07/08 07:43:26;;;;;;;58.30;2.70;;;19.00;69.80;;;;;;5051046;28;20552;-70
2021/07/08 07:45:53;;;;;;;58.03;2.70;;;19.10;66.10;;;;;;5051552;28;20539;-70
2021/07/08 07:48:20;;;;;;;58.13;2.83;;;19.20;62.50;;;;;;5051518;28;20440;-70
2021/07/08 07:50:47;;;;;;;57.97;2.60;;;19.30;60.30;;;;;;5051327;28;21002;-70
2021/07/08 07:53:13;;;;;;;58.47;2.93;;;19.30;53.60;;;;;;5051015;28;20549;-70
2021/07/08 07:55:40;;;;;;;58.37;2.60;;;19.40;47.20;;;;;;5050896;28;20449;-70
2021/07/08 07:58:09;;;;;;;57.97;2.93;;;19.40;42.10;;;;;;5051414;28;20485;-70
2021/07/08 08:00:36;;;;;;;58.03;2.60;;;19.50;38.80;;;;;;5055160;28;20571;-70
2021/07/08 08:03:03;;;;;;;57.67;2.43;;;19.60;38.10;;;;;;5054934;28;20479;-70
2021/07/08 08:05:36;;;;;;;58.23;2.70;;;19.60;33.40;;;;;;5055034;28;20845;-70
2021/07/08 08:10:50;;;;;;;58.00;2.50;;;19.60;22.30;;;;;;5055209;28;20424;-70
2021/07/08 08:13:18;;;;;;;57.70;2.40;;;19.70;17.00;;;;;;5054812;28;20469;-70
2021/07/08 08:15:45;;;;;;;58.30;2.70;;;19.70;13.50;;;;;;5054885;28;20531;-70
2021/07/08 08:18:12;;;;;;;57.83;2.30;;;19.80;12.90;;;;;;5054691;28;20515;-70
2021/07/08 08:20:39;;;;;;;57.57;2.37;;;19.80;10.20;;;;;;5054628;28;20537;-70
2021/07/08 08:23:06;;;;;;;57.47;2.33;;;19.80;1.00;;;;;;5054555;28;20893;-70
2021/07/08 08:25:33;;;;;;;57.67;2.53;;;19.80;1.00;;;;;;5054889;28;20535;-70
2021/07/08 08:28:00;;;;;;;58.07;2.77;;;19.80;1.00;;;;;;5054738;28;20471;-70
2021/07/08 08:30:29;;;;;;;57.77;2.30;;;19.80;1.00;;;;;;5054739;28;20476;-70
2021/07/08 08:32:56;;;;;;;58.30;2.40;;;19.90;1.00;;;;;;5054166;28;20506;-70
2021/07/08 08:35:23;;;;;;;57.80;2.50;;;20.00;1.00;;;;;;5054383;28;20532;-70
2021/07/08 08:37:50;;;;;;;57.87;2.50;;;20.10;1.00;;;;;;5054472;28;20481;-70
2021/07/08 08:40:18;;;;;;;58.13;2.80;;;20.30;1.00;;;;;;5054443;28;20968;-70
2021/07/08 08:42:45;;;;;;;57.90;2.30;;;20.60;1.00;;;;;;5054192;28;20495;-68
2021/07/08 08:45:17;;;;;;;58.17;2.90;;;20.80;1.00;;;;;;5054191;28;20548;-69
2021/07/08 08:48:01;;;;;;;57.87;2.40;;;21.10;1.00;;;;;;5054235;28;20517;-70
2021/07/08 08:50:29;;;;;;;57.83;3.00;;;21.30;1.00;;;;;;5054103;28;20946;-69
2021/07/08 08:52:56;;;;;;;57.87;2.60;;;21.30;1.00;;;;;;5053854;28;20533;-69
2021/07/08 08:55:23;;;;;;;57.67;2.50;;;21.40;1.00;;;;;;5054172;28;20533;-69
2021/07/08 08:57:50;;;;;;;58.03;2.43;;;21.30;1.00;;;;;;5054046;28;20568;-69
2021/07/08 09:00:39;;;;;;;57.97;2.50;;;21.40;1.00;;;;;;5053844;28;20939;-70
2021/07/08 09:03:10;;;;;;;57.93;2.80;;;21.50;1.00;;;;;;5053683;28;20534;-69
2021/07/08 09:05:38;;;;;;;58.03;2.60;;;21.70;1.00;;;;;;5053998;28;20545;-70
2021/07/08 09:08:18;;;;;;;58.20;2.83;;;22.00;1.00;;;;;;5053980;28;20506;-70
2021/07/08 09:10:48;;;;;;;58.33;2.90;;;22.30;1.00;;;;;;5052615;28;20451;-70
2021/07/08 09:13:15;;;;;;;58.10;2.70;;;22.50;1.00;;;;;;5053609;28;20841;-70
2021/07/08 09:15:42;;;;;;;58.50;2.90;;;22.60;1.00;;;;;;5053841;28;20534;-69
2021/07/08 09:18:13;;;;;;;57.83;2.33;;;22.60;1.00;;;;;;5053537;28;21015;-70
2021/07/08 09:20:40;;;;;;;58.23;2.53;;;22.60;1.00;;;;;;5053613;28;20880;-70
2021/07/08 09:23:18;;;;;;;58.03;2.50;;;22.50;1.00;;;;;;5053239;28;20495;-70
2021/07/08 09:25:47;;;;;;;57.47;2.50;;;22.40;1.00;;;;;;5053612;28;20904;-70
2021/07/08 09:28:19;;;;;;;57.67;2.60;;;22.40;1.00;;;;;;5053525;28;20881;-70
2021/07/08 09:30:55;;;;;;;58.17;2.50;;;22.40;1.00;;;;;;5053666;28;20452;-70
2021/07/08 09:33:41;;;;;;;58.17;2.60;;;22.60;1.00;;;;;;5052968;28;21038;-70
2021/07/08 09:36:14;;;;;;;57.30;2.43;;;22.80;1.00;;;;;;5053516;28;20456;-69
2021/07/08 09:38:43;;;;;;;58.17;3.07;;;22.90;1.00;;;;;;5053351;28;20491;-70
2021/07/08 09:41:17;;;;;;;58.17;2.70;;;23.10;1.00;;;;;;5053196;28;20538;-70
2021/07/08 09:43:44;;;;;;;57.97;2.20;;;23.20;1.00;;;;;;5052908;28;20976;-70
2021/07/08 09:46:13;;;;;;;58.03;2.70;;;23.20;1.00;;;;;;5052977;28;20483;-70
2021/07/08 09:49:06;;;;;;;58.30;3.03;;;23.10;1.00;;;;;;5053255;28;20534;-70
2021/07/08 09:51:35;;;;;;;58.07;2.50;;;23.10;1.00;;;;;;5052795;28;20451;-70
2021/07/08 09:54:11;;;;;;;58.17;2.60;;;23.10;1.00;;;;;;5053334;28;20498;-70
2021/07/08 09:56:51;;;;;;;57.33;2.40;;;22.90;1.00;;;;;;5052899;28;20952;-70
2021/07/08 09:59:20;;;;;;;58.30;2.60;;;23.00;1.00;;;;;;5052729;28;20480;-68
2021/07/08 10:01:57;;;;;;;57.67;2.60;;;23.00;1.00;;;;;;5052453;28;20451;-68
2021/07/08 10:04:26;;;;;;;58.17;2.70;;;23.10;1.00;;;;;;5052526;28;20481;-68
2021/07/08 10:06:54;;;;;;;57.50;2.30;;;23.30;1.00;;;;;;5052458;28;20542;-68
2021/07/08 10:09:23;;;;;;;57.63;2.63;;;23.50;1.00;;;;;;5052765;28;20449;-68
2021/07/08 10:11:51;;;;;;;57.93;2.53;;;23.60;1.00;;;;;;5052400;28;20449;-68
2021/07/08 10:14:19;;;;;;;57.80;2.60;;;23.60;1.00;;;;;;5052493;28;20475;-68
2021/07/08 10:16:50;;;;;;;57.97;2.47;;;23.70;1.00;;;;;;5052336;28;20936;-68
2021/07/08 10:19:20;;;;;;;58.07;2.50;;;23.70;1.00;;;;;;5052225;28;20511;-68
2021/07/08 10:21:49;;;;;;;58.40;3.53;;;23.60;1.00;;;;;;5051961;28;20448;-68
2021/07/08 10:24:17;;;;;;;57.20;2.60;;;23.60;1.00;;;;;;5052042;28;20571;-68
2021/07/08 10:26:44;;;;;;;57.67;2.57;;;23.60;1.00;;;;;;5052467;28;20455;-68
2021/07/08 10:29:12;;;;;;;57.97;2.80;;;23.60;1.00;;;;;;5052374;28;20449;-68
2021/07/08 10:31:41;;;;;;;58.13;3.00;;;23.70;1.00;;;;;;5051934;28;20542;-68
2021/07/08 10:34:13;;;;;;;57.80;2.23;;;23.90;1.00;;;;;;5051895;28;20569;-68
2021/07/08 10:36:42;;;;;;;59.27;3.27;;;24.00;1.00;;;;;;5052233;28;21015;-68
2021/07/08 10:39:13;;;;;;;58.10;2.50;;;24.20;1.00;;;;;;5052125;28;20519;-68
2021/07/08 10:41:49;;;;;;;57.73;2.23;;;24.40;1.00;;;;;;5051938;28;20502;-68
2021/07/08 10:44:48;;;;;;;57.77;2.10;;;24.70;1.00;;;;;;5051947;28;20464;-68
2021/07/08 10:47:34;;;;;;;57.77;2.30;;;25.00;1.00;;;;;;5052217;28;20793;-68
2021/07/08 10:50:02;;;;;;;57.80;2.30;;;25.10;1.00;;;;;;5051788;28;20472;-68
2021/07/08 10:52:48;;;;;;;57.90;2.10;;;25.20;1.00;;;;;;5051547;28;20449;-67
2021/07/08 10:55:35;;;;;;;58.70;2.70;;;25.30;1.00;;;;;;5051992;28;20824;-67
2021/07/08 10:58:03;;;;;;;57.77;2.33;;;25.20;1.00;;;;;;5051919;28;20540;-68
2021/07/08 11:00:47;;;;;;;57.70;2.07;;;25.10;1.00;;;;;;5051776;28;20459;-67
2021/07/08 11:03:42;;;;;;;57.67;2.13;;;25.00;1.00;;;;;;5051172;28;20475;-68
2021/07/08 11:06:17;;;;;;;58.00;2.23;;;24.90;1.00;;;;;;5038151;28;21044;-67
2021/07/08 11:08:53;;;;;;;58.90;2.60;;;24.70;1.00;;;;;;5052040;28;20446;-67
2021/07/08 11:11:58;;;;;;;57.97;2.30;;;24.60;1.00;;;;;;5051607;28;20440;-68
2021/07/08 11:14:28;;;;;;;57.83;2.70;;;24.40;1.00;;;;;;5051691;28;20875;-67
2021/07/08 11:16:58;;;;;;;58.27;2.70;;;24.30;1.00;;;;;;5051650;28;20445;-67
2021/07/08 11:19:37;;;;;;;58.00;2.50;;;24.20;1.00;;;;;;5051669;28;20907;-67
2021/07/08 11:22:08;;;;;;;57.57;2.23;;;24.20;1.00;;;;;;5051231;28;20455;-67
2021/07/08 11:24:44;;;;;;;58.07;2.40;;;24.20;1.00;;;;;;5051562;28;20939;-67
2021/07/08 11:27:13;;;;;;;58.10;2.60;;;24.20;1.00;;;;;;5051879;28;20455;-68
2021/07/08 11:29:43;;;;;;;58.20;2.80;;;24.20;1.00;;;;;;5051937;28;20538;-67
2021/07/08 11:32:22;;;;;;;58.20;2.40;;;24.20;1.00;;;;;;5051243;28;20542;-68
2021/07/08 11:34:54;;;;;;;57.67;2.30;;;24.20;1.00;;;;;;5053944;28;20971;-68
2021/07/08 11:37:23;;;;;;;57.47;2.63;;;24.10;1.00;;;;;;5055607;28;20454;-67
2021/07/08 11:39:56;;;;;;;57.77;2.60;;;24.00;1.00;;;;;;5055446;28;20575;-68
2021/07/08 11:42:24;;;;;;;57.67;2.27;;;23.90;1.00;;;;;;5055121;28;20451;-68
2021/07/08 11:44:53;;;;;;;57.87;2.30;;;23.80;1.00;;;;;;5055191;28;20467;-67
2021/07/08 11:47:21;;;;;;;57.80;2.50;;;23.80;1.00;;;;;;5055174;28;20451;-68
2021/07/08 11:49:49;;;;;;;57.97;2.40;;;23.70;1.00;;;;;;5055387;28;20444;-68
2021/07/08 11:52:27;;;;;;;58.30;2.53;;;23.60;1.00;;;;;;5055119;28;20471;-67
2021/07/08 11:54:56;;;;;;;57.77;2.17;;;23.50;1.00;;;;;;5055132;28;20874;-67
2021/07/08 11:57:22;;;;;;;57.80;2.20;;;23.40;1.00;;;;;;5054944;28;20482;-68
2021/07/08 11:59:50;;;;;;;57.67;2.20;;;23.30;1.00;;;;;;5054994;28;21090;-67
2021/07/08 12:05:17;;;;;;;57.60;2.40;;;23.30;1.00;;;;;;5089427;27;20528;-68
2021/07/08 12:07:48;;;;;;;58.10;2.60;;;23.20;1.00;;;;;;5089206;28;20452;-68
2021/07/08 12:10:23;;;;;;;58.50;2.80;;;23.20;1.00;;;;;;5089479;28;20438;-68
2021/07/08 12:12:52;;;;;;;57.97;2.30;;;23.30;1.00;;;;;;5089173;28;20442;-68
2021/07/08 12:15:21;;;;;;;58.17;2.63;;;23.40;1.00;;;;;;5089292;28;20500;-68
2021/07/08 12:17:52;;;;;;;58.80;2.70;;;23.40;1.00;;;;;;5089233;28;20443;-68
2021/07/08 12:20:20;;;;;;;58.20;2.83;;;23.50;1.00;;;;;;5089097;28;20966;-68
2021/07/08 12:22:56;;;;;;;59.20;2.40;;;23.60;1.00;;;;;;5088745;28;20446;-68
2021/07/08 12:25:23;;;;;;;57.33;2.20;;;23.70;1.00;;;;;;5089060;28;21065;-68
2021/07/08 12:27:51;;;;;;;57.97;2.53;;;23.80;1.00;;;;;;5089155;28;20880;-68
2021/07/08 12:30:20;;;;;;;57.67;2.20;;;23.90;1.00;;;;;;5088969;28;20489;-68
2021/07/08 12:32:47;;;;;;;57.90;2.27;;;24.10;1.00;;;;;;5088471;28;20905;-68
2021/07/08 12:35:14;;;;;;;57.57;2.20;;;24.10;1.00;;;;;;5089014;28;20459;-68
2021/07/08 12:37:42;;;;;;;58.00;2.30;;;24.00;1.00;;;;;;5088981;28;20529;-68
2021/07/08 12:40:12;;;;;;;57.67;2.20;;;23.70;1.00;;;;;;5088882;28;20533;-68
2021/07/08 12:42:42;;;;;;;58.10;2.50;;;23.50;1.00;;;;;;5088494;28;20446;-68
2021/07/08 12:45:11;;;;;;;58.30;2.80;;;23.40;1.00;;;;;;5088450;28;20488;-68
2021/07/08 12:47:38;;;;;;;57.43;2.30;;;23.20;1.00;;;;;;5088837;28;20444;-68
2021/07/08 12:50:06;;;;;;;58.17;2.40;;;23.10;1.00;;;;;;5088582;28;20931;-68
2021/07/08 12:52:36;;;;;;;58.20;2.50;;;23.10;1.00;;;;;;5088369;28;20474;-68
2021/07/08 12:55:06;;;;;;;58.40;2.43;;;23.00;1.00;;;;;;5088352;28;20467;-68